createdAt,value
2024-01-15T00:00:22.216Z,101073.59
2024-01-15T00:02:49.120Z,101078.28
2024-01-15T00:05:15.982Z,101086.53
2024-01-15T00:07:42.663Z,101063.88
2024-01-15T00:10:09.652Z,101054.25
2024-01-15T00:12:36.453Z,101063.31
2024-01-15T00:15:03.478Z,101056.97
2024-01-15T00:17:30.440Z,101063.47
2024-01-15T00:19:57.332Z,101054.66
2024-01-15T00:22:27.771Z,101057.25
2024-01-15T00:24:55.807Z,101060.94
2024-01-15T00:27:23.256Z,101074.06
2024-01-15T00:29:51.541Z,101068.91
2024-01-15T00:32:18.439Z,101062.00
2024-01-15T00:34:45.288Z,101072.69
2024-01-15T00:37:12.204Z,101060.53
2024-01-15T00:39:39.121Z,101066.78
2024-01-15T00:42:06.064Z,101059.75
2024-01-15T00:44:32.791Z,101059.22
2024-01-15T00:46:59.540Z,101058.47
2024-01-15T00:49:28.533Z,101058.53
2024-01-15T00:51:55.429Z,101032.13
2024-01-15T00:54:22.156Z,101036.00
2024-01-15T00:56:48.888Z,101012.97
2024-01-15T00:59:18.864Z,101023.78
2024-01-15T01:01:47.238Z,101041.41
2024-01-15T01:04:14.204Z,101037.13
2024-01-15T01:06:41.197Z,101038.16
2024-01-15T01:09:08.180Z,101035.50
2024-01-15T01:11:34.937Z,101026.91
2024-01-15T01:14:02.920Z,101031.38
2024-01-15T01:16:29.754Z,101026.34
2024-01-15T01:18:56.631Z,101029.22
2024-01-15T01:21:23.551Z,101037.22
2024-01-15T01:23:50.278Z,100983.63
2024-01-15T01:26:18.935Z,101011.16
2024-01-15T01:28:45.754Z,101003.22
2024-01-15T01:31:12.618Z,101011.38
2024-01-15T01:33:41.022Z,101007.00
2024-01-15T01:36:11.181Z,100968.00
2024-01-15T01:38:39.390Z,101019.53
2024-01-15T01:41:06.216Z,100991.41
2024-01-15T01:43:33.031Z,101013.47
2024-01-15T01:46:02.301Z,101002.78
2024-01-15T01:48:30.508Z,101001.91
2024-01-15T01:51:01.234Z,101023.22
2024-01-15T01:53:28.970Z,101017.22
2024-01-15T01:55:58.446Z,101006.63
2024-01-15T01:58:26.689Z,101018.94
2024-01-15T02:00:54.479Z,101016.44
2024-01-15T02:03:21.867Z,101015.53
2024-01-15T02:05:50.953Z,101008.72
2024-01-15T02:08:18.136Z,100975.34
2024-01-15T02:10:44.892Z,100990.66
2024-01-15T02:13:12.222Z,100989.81
2024-01-15T02:15:39.104Z,100995.16
2024-01-15T02:18:08.606Z,100970.34
2024-01-15T02:20:36.027Z,100990.06
2024-01-15T02:23:15.552Z,100977.09
2024-01-15T02:25:45.660Z,100960.63
2024-01-15T02:28:14.663Z,100923.72
2024-01-15T02:30:43.297Z,100951.06
2024-01-15T02:33:11.730Z,100967.00
2024-01-15T02:35:39.096Z,100953.06
2024-01-15T02:38:07.102Z,100944.41
2024-01-15T02:40:35.763Z,100937.28
2024-01-15T02:43:03.244Z,100907.41
2024-01-15T02:45:30.342Z,100928.78
2024-01-15T02:47:57.617Z,100928.78
2024-01-15T02:50:24.493Z,100921.75
2024-01-15T02:52:51.458Z,100916.34
2024-01-15T02:55:18.255Z,100925.91
2024-01-15T02:57:45.209Z,100922.56
2024-01-15T03:00:13.128Z,100927.03
2024-01-15T03:02:43.666Z,100921.59
2024-01-15T03:05:12.100Z,100919.00
2024-01-15T03:07:39.303Z,100884.69
2024-01-15T03:10:07.439Z,100901.50
2024-01-15T03:12:34.305Z,100891.19
2024-01-15T03:15:01.326Z,100891.25
2024-01-15T03:17:28.281Z,100887.91
2024-01-15T03:19:55.375Z,100885.25
2024-01-15T03:22:22.167Z,100881.59
2024-01-15T03:24:49.267Z,100878.88
2024-01-15T03:27:16.374Z,100874.19
2024-01-15T03:29:43.218Z,100887.28
2024-01-15T03:32:09.973Z,100883.72
2024-01-15T03:34:36.981Z,100868.78
2024-01-15T03:37:04.830Z,100876.56
2024-01-15T03:39:31.610Z,100861.53
2024-01-15T03:41:58.793Z,100863.47
2024-01-15T03:44:25.535Z,100866.00
2024-01-15T03:46:52.271Z,100869.63
2024-01-15T03:49:19.232Z,100863.41
2024-01-15T03:51:46.368Z,100864.44
2024-01-15T03:54:13.305Z,100840.94
2024-01-15T03:56:40.079Z,100834.88
2024-01-15T03:59:06.763Z,100828.88
2024-01-15T04:01:33.574Z,100818.25
2024-01-15T04:04:00.515Z,100809.38
2024-01-15T04:06:27.437Z,100840.22
2024-01-15T04:08:54.203Z,100849.97
2024-01-15T04:11:21.007Z,100834.06
2024-01-15T04:13:47.753Z,100825.09
2024-01-15T04:16:14.449Z,100845.53
2024-01-15T04:18:41.303Z,100848.13
2024-01-15T04:21:08.076Z,100853.44
2024-01-15T04:23:34.970Z,100854.19
2024-01-15T04:26:01.865Z,100834.88
2024-01-15T04:28:28.665Z,100830.53
2024-01-15T04:30:55.670Z,100834.81
2024-01-15T04:33:22.605Z,100793.56
2024-01-15T04:35:50.423Z,100818.19
2024-01-15T04:38:17.164Z,100826.03
2024-01-15T04:40:43.926Z,100826.97
2024-01-15T04:43:10.677Z,100811.25
2024-01-15T04:45:37.501Z,100801.47
2024-01-15T04:48:04.738Z,100806.06
2024-01-15T04:50:31.598Z,100823.72
2024-01-15T04:52:58.393Z,100795.59
2024-01-15T04:55:25.161Z,100798.63
2024-01-15T04:57:51.945Z,100810.78
2024-01-15T05:00:18.873Z,100799.44
2024-01-15T05:02:46.608Z,100808.31
2024-01-15T05:05:13.497Z,100794.31
2024-01-15T05:07:40.274Z,100800.41
2024-01-15T05:10:08.885Z,100788.34
2024-01-15T05:12:35.768Z,100796.47
2024-01-15T05:15:02.942Z,100795.69
2024-01-15T05:17:29.760Z,100784.22
2024-01-15T05:19:56.679Z,100762.28
2024-01-15T05:22:25.928Z,100785.41
2024-01-15T05:24:52.898Z,100780.41
2024-01-15T05:27:19.842Z,100776.03
2024-01-15T05:29:49.211Z,100772.63
2024-01-15T05:32:15.948Z,100751.44
2024-01-15T05:34:42.770Z,100779.72
2024-01-15T05:37:11.978Z,100781.38
2024-01-15T05:39:39.063Z,100782.31
2024-01-15T05:42:05.883Z,100777.16
2024-01-15T05:44:32.740Z,100790.41
2024-01-15T05:46:59.485Z,100781.69
2024-01-15T05:49:26.382Z,100772.16
2024-01-15T05:51:53.247Z,100769.63
2024-01-15T05:54:21.120Z,100755.47
2024-01-15T05:56:48.130Z,100763.63
2024-01-15T05:59:16.105Z,100756.72
2024-01-15T06:01:43.136Z,100757.69
2024-01-15T06:04:10.132Z,100760.28
2024-01-15T06:06:37.318Z,100757.69
2024-01-15T06:09:06.816Z,100760.41
2024-01-15T06:11:34.251Z,100737.63
2024-01-15T06:14:04.419Z,100751.69
2024-01-15T06:16:31.340Z,100755.28
2024-01-15T06:18:58.650Z,100754.44
2024-01-15T06:21:25.726Z,100758.84
2024-01-15T06:23:52.581Z,100732.31
2024-01-15T06:26:19.322Z,100732.44
2024-01-15T06:28:46.451Z,100765.03
2024-01-15T06:31:14.458Z,100751.25
2024-01-15T06:33:41.918Z,100743.41
2024-01-15T06:36:08.909Z,100746.81
2024-01-15T06:38:35.742Z,100728.47
2024-01-15T06:41:02.584Z,100745.16
2024-01-15T06:43:29.541Z,100735.63
2024-01-15T06:45:56.480Z,100736.56
2024-01-15T06:48:23.546Z,100722.72
2024-01-15T06:50:50.592Z,100737.44
2024-01-15T06:53:17.434Z,100725.25
2024-01-15T06:55:44.268Z,100734.84
2024-01-15T06:58:11.888Z,100741.19
2024-01-15T07:00:39.170Z,100730.88
2024-01-15T07:03:06.154Z,100736.13
2024-01-15T07:05:33.391Z,100734.28
2024-01-15T07:08:00.384Z,100727.25
2024-01-15T07:10:27.981Z,100730.06
2024-01-15T07:12:54.855Z,100739.81
2024-01-15T07:15:22.056Z,100742.38
2024-01-15T07:17:49.018Z,100722.28
2024-01-15T07:20:15.810Z,100700.25
2024-01-15T07:22:42.619Z,100732.03
2024-01-15T07:25:09.531Z,100742.78
2024-01-15T07:27:36.532Z,100733.22
2024-01-15T07:30:05.453Z,100724.63
2024-01-15T07:32:32.883Z,100735.91
2024-01-15T07:35:01.029Z,100722.03
2024-01-15T07:37:27.916Z,100723.88
2024-01-15T07:39:54.900Z,100713.38
2024-01-15T07:42:22.058Z,100731.78
2024-01-15T07:44:49.077Z,100732.66
2024-01-15T07:47:15.865Z,100737.06
2024-01-15T07:49:42.862Z,100737.16
2024-01-15T07:52:11.483Z,100737.31
2024-01-15T07:54:38.322Z,100745.22
2024-01-15T07:57:05.392Z,100726.69
2024-01-15T07:59:32.336Z,100681.78
2024-01-15T08:02:00.584Z,100738.34
2024-01-15T08:04:27.917Z,100740.91
2024-01-15T08:06:54.916Z,100732.31
2024-01-15T08:09:21.895Z,100736.63
2024-01-15T08:11:51.936Z,100746.41
2024-01-15T08:14:19.262Z,100710.31
2024-01-15T08:16:46.021Z,100736.63
2024-01-15T08:19:13.170Z,100748.13
2024-01-15T08:21:40.083Z,100738.34
2024-01-15T08:24:07.203Z,100755.91
2024-01-15T08:26:34.113Z,100752.53
2024-01-15T08:29:01.153Z,100753.44
2024-01-15T08:31:28.958Z,100751.78
2024-01-15T08:33:56.922Z,100745.78
2024-01-15T08:36:25.461Z,100746.72
2024-01-15T08:38:52.389Z,100758.16
2024-01-15T08:41:19.227Z,100763.00
2024-01-15T08:43:46.025Z,100749.91
2024-01-15T08:46:12.942Z,100755.09
2024-01-15T08:48:40.914Z,100748.88
2024-01-15T08:51:09.536Z,100755.25
2024-01-15T08:53:36.398Z,100761.38
2024-01-15T08:56:03.328Z,100758.88
2024-01-15T08:58:30.160Z,100758.91
2024-01-15T09:00:57.525Z,100751.19
2024-01-15T09:03:24.525Z,100752.28
2024-01-15T09:05:52.314Z,100763.13
2024-01-15T09:08:19.381Z,100747.31
2024-01-15T09:10:47.203Z,100746.56
2024-01-15T09:13:14.108Z,100738.69
2024-01-15T09:15:40.937Z,100725.59
2024-01-15T09:18:08.610Z,100764.25
2024-01-15T09:20:36.173Z,100761.75
2024-01-15T09:23:04.106Z,100741.63
2024-01-15T09:25:30.973Z,100769.97
2024-01-15T09:27:58.489Z,100763.19
2024-01-15T09:30:25.434Z,100768.50
2024-01-15T09:32:52.476Z,100769.53
2024-01-15T09:35:20.316Z,100766.78
2024-01-15T09:37:48.657Z,100770.78
2024-01-15T09:40:16.739Z,100753.38
2024-01-15T09:42:45.395Z,100765.16
2024-01-15T09:45:13.478Z,100768.75
2024-01-15T09:47:45.530Z,100775.25
2024-01-15T09:50:16.339Z,100764.06
2024-01-15T09:52:45.299Z,100772.06
2024-01-15T09:55:13.233Z,100780.16
2024-01-15T09:57:40.712Z,100784.59
2024-01-15T10:00:12.330Z,100783.75
2024-01-15T10:02:39.502Z,100778.75
2024-01-15T10:05:06.668Z,100774.50
2024-01-15T10:07:37.299Z,100780.03
2024-01-15T10:10:07.131Z,100782.78
2024-01-15T10:12:34.261Z,100774.94
2024-01-15T10:15:01.215Z,100783.72
2024-01-15T10:17:29.412Z,100796.13
2024-01-15T10:19:56.635Z,100791.84
2024-01-15T10:22:24.450Z,100790.22
2024-01-15T10:24:51.450Z,100773.63
2024-01-15T10:27:18.544Z,100771.13
2024-01-15T10:29:45.442Z,100775.59
2024-01-15T10:32:13.143Z,100769.50
2024-01-15T10:34:44.887Z,100746.53
2024-01-15T10:37:12.150Z,100773.00
2024-01-15T10:39:40.379Z,100774.81
2024-01-15T10:42:08.415Z,100770.56
2024-01-15T10:44:36.630Z,100768.94
2024-01-15T10:47:04.218Z,100764.69
2024-01-15T10:49:33.483Z,100764.81
2024-01-15T10:52:04.891Z,100760.53
2024-01-15T10:54:33.298Z,100763.28
2024-01-15T10:57:00.186Z,100758.19
2024-01-15T10:59:27.042Z,100759.06
2024-01-15T11:01:55.945Z,100745.81
2024-01-15T11:04:26.221Z,100771.50
2024-01-15T11:06:56.082Z,100780.50
2024-01-15T11:09:25.338Z,100751.84
2024-01-15T11:12:12.822Z,100757.38
2024-01-15T11:14:46.978Z,100758.50
2024-01-15T11:17:15.033Z,100759.69
2024-01-15T11:19:46.019Z,100762.50
2024-01-15T11:22:31.253Z,100770.84
2024-01-15T11:25:02.875Z,100752.66
2024-01-15T11:27:48.735Z,100755.56
2024-01-15T11:30:16.161Z,100744.19
2024-01-15T11:32:43.817Z,100755.56
2024-01-15T11:35:12.417Z,100759.19
2024-01-15T11:38:00.632Z,100753.88
2024-01-15T11:40:34.141Z,100740.94
2024-01-15T11:43:01.626Z,100750.66
2024-01-15T11:45:29.189Z,100733.13
2024-01-15T11:48:15.342Z,100756.97
2024-01-15T11:50:47.662Z,100745.59
2024-01-15T11:53:46.646Z,100746.66
2024-01-15T11:56:17.913Z,100740.59
2024-01-15T11:58:45.233Z,100731.91
2024-01-15T12:01:12.537Z,100702.16
2024-01-15T12:03:39.495Z,100723.47
2024-01-15T12:06:08.345Z,100719.25
2024-01-15T12:08:36.084Z,100715.84
2024-01-15T12:11:15.041Z,100707.19
2024-01-15T12:13:42.328Z,100703.84
2024-01-15T12:16:09.507Z,100695.28
2024-01-15T12:18:36.810Z,100701.50
2024-01-15T12:21:05.439Z,100698.19
2024-01-15T12:23:32.358Z,100692.94
2024-01-15T12:25:59.457Z,100693.81
2024-01-15T12:28:28.944Z,100704.38
2024-01-15T12:30:57.652Z,100706.19
2024-01-15T12:33:24.608Z,100699.28
2024-01-15T12:35:54.510Z,100700.19
2024-01-15T12:38:21.957Z,100692.31
2024-01-15T12:40:49.600Z,100680.09
2024-01-15T12:43:16.486Z,100687.13
2024-01-15T12:45:44.412Z,100688.06
2024-01-15T12:48:11.704Z,100674.09
2024-01-15T12:50:38.610Z,100678.50
2024-01-15T12:53:05.594Z,100671.50
2024-01-15T12:55:32.694Z,100671.59
2024-01-15T12:57:59.774Z,100671.66
2024-01-15T13:00:27.298Z,100669.09
2024-01-15T13:02:56.023Z,100666.56
2024-01-15T13:05:24.095Z,100664.03
2024-01-15T13:07:51.401Z,100653.66
2024-01-15T13:10:18.159Z,100651.91
2024-01-15T13:12:44.953Z,100646.78
2024-01-15T13:15:15.524Z,100646.88
2024-01-15T13:17:44.194Z,100643.34
2024-01-15T13:20:12.665Z,100651.25
2024-01-15T13:22:42.717Z,100654.78
2024-01-15T13:25:10.222Z,100639.09
2024-01-15T13:27:38.751Z,100649.59
2024-01-15T13:30:08.451Z,100651.34
2024-01-15T13:32:35.354Z,100643.50
2024-01-15T13:35:02.333Z,100651.41
2024-01-15T13:37:29.150Z,100649.69
2024-01-15T13:39:56.180Z,100661.06
2024-01-15T13:42:23.703Z,100648.78
2024-01-15T13:44:51.248Z,100656.63
2024-01-15T13:47:18.093Z,100660.16
2024-01-15T13:49:44.915Z,100661.00
2024-01-15T13:52:11.829Z,100663.66
2024-01-15T13:54:48.122Z,100663.63
2024-01-15T13:57:18.186Z,100655.72
2024-01-15T13:59:45.288Z,100654.81
2024-01-15T14:02:12.218Z,100648.72
2024-01-15T14:04:40.319Z,100655.66
2024-01-15T14:07:07.477Z,100653.91
2024-01-15T14:09:34.933Z,100654.75
2024-01-15T14:12:01.877Z,100665.25
2024-01-15T14:14:28.883Z,100642.47
2024-01-15T14:16:55.617Z,100638.94
2024-01-15T14:19:22.982Z,100645.03
2024-01-15T14:21:50.387Z,100649.38
2024-01-15T14:24:18.754Z,100649.38
2024-01-15T14:26:46.585Z,100646.56
2024-01-15T14:29:13.580Z,100639.44
2024-01-15T14:31:40.696Z,100644.59
2024-01-15T14:34:09.168Z,100648.06
2024-01-15T14:36:36.579Z,100651.47
2024-01-15T14:39:03.939Z,100648.94
2024-01-15T14:41:31.396Z,100654.03
2024-01-15T14:43:58.644Z,100645.31
2024-01-15T14:46:28.710Z,100650.47
2024-01-15T14:48:55.686Z,100641.56
2024-01-15T14:51:22.547Z,100644.13
2024-01-15T14:53:49.422Z,100658.06
2024-01-15T14:56:18.455Z,100655.38
2024-01-15T14:58:48.271Z,100652.66
2024-01-15T15:01:15.199Z,100665.00
2024-01-15T15:03:43.326Z,100628.22
2024-01-15T15:06:10.427Z,100662.38
2024-01-15T15:08:38.167Z,100656.19
2024-01-15T15:11:05.675Z,100661.91
2024-01-15T15:13:41.718Z,100672.50
2024-01-15T15:16:15.302Z,100681.19
2024-01-15T15:18:48.018Z,100676.63
2024-01-15T15:21:15.145Z,100678.16
2024-01-15T15:23:42.068Z,100689.03
2024-01-15T15:26:08.825Z,100689.91
2024-01-15T15:28:38.797Z,100692.41
2024-01-15T15:31:14.166Z,100686.94
2024-01-15T15:33:56.228Z,100692.66
2024-01-15T15:36:23.143Z,100700.22
2024-01-15T15:38:50.126Z,100694.69
2024-01-15T15:41:16.911Z,100708.66
2024-01-15T15:43:43.667Z,100712.16
2024-01-15T15:46:10.501Z,100703.44
2024-01-15T15:48:37.411Z,100705.38
2024-01-15T15:51:05.069Z,100698.34
2024-01-15T15:53:31.827Z,100705.00
2024-01-15T15:55:59.831Z,100719.66
2024-01-15T15:58:26.754Z,100717.69
2024-01-15T16:00:54.117Z,100708.75
2024-01-15T16:03:21.084Z,100725.38
2024-01-15T16:05:52.899Z,100731.69
2024-01-15T16:08:21.652Z,100733.84
2024-01-15T16:10:53.377Z,100737.13
2024-01-15T16:13:23.030Z,100746.59
2024-01-15T16:15:50.651Z,100747.66
2024-01-15T16:23:20.371Z,100739.78
2024-01-15T16:23:34.912Z,100731.81
2024-01-15T16:24:12.688Z,100736.09
2024-01-15T16:26:43.357Z,100740.34
2024-01-15T16:29:11.018Z,100740.28
2024-01-15T16:31:39.153Z,100741.34
2024-01-15T16:34:10.778Z,100728.88
2024-01-15T16:36:39.225Z,100740.19
2024-01-15T16:39:06.127Z,100739.53
2024-01-15T16:41:33.957Z,100747.13
2024-01-15T16:44:00.942Z,100746.09
2024-01-15T16:46:27.702Z,100744.41
2024-01-15T16:48:54.610Z,100744.50
2024-01-15T16:51:21.630Z,100753.13
2024-01-15T16:53:48.369Z,100753.84
2024-01-15T16:56:15.411Z,100751.09
2024-01-15T16:58:42.198Z,100757.72
2024-01-15T17:01:09.555Z,100763.19
2024-01-15T17:03:36.633Z,100747.84
2024-01-15T17:06:03.665Z,100756.25
2024-01-15T17:08:30.520Z,100768.63
2024-01-15T17:10:58.096Z,100767.59
2024-01-15T17:13:25.755Z,100767.78
2024-01-15T17:15:52.572Z,100776.44
2024-01-15T17:18:19.767Z,100774.72
2024-01-15T17:20:47.228Z,100776.53
2024-01-15T17:23:14.297Z,100774.00
2024-01-15T17:25:41.645Z,100775.59
2024-01-15T17:28:08.405Z,100769.28
2024-01-15T17:30:35.227Z,100780.50
2024-01-15T17:33:02.066Z,100770.78
2024-01-15T17:35:29.588Z,100779.34
2024-01-15T17:37:56.483Z,100790.59
2024-01-15T17:40:23.709Z,100788.03
2024-01-15T17:42:51.067Z,100791.75
2024-01-15T17:45:19.636Z,100800.47
2024-01-15T17:47:46.990Z,100798.72
2024-01-15T17:50:14.073Z,100797.78
2024-01-15T17:52:41.075Z,100798.88
2024-01-15T17:55:08.705Z,100797.84
2024-01-15T17:57:35.437Z,100780.03
2024-01-15T18:00:02.319Z,100807.22
2024-01-15T18:02:34.792Z,100803.66
2024-01-15T18:05:01.611Z,100807.47
2024-01-15T18:07:28.884Z,100790.72
2024-01-15T18:09:56.595Z,100795.19
2024-01-15T18:12:25.363Z,100805.09
2024-01-15T18:14:52.227Z,100793.25
2024-01-15T18:17:19.176Z,100776.78
2024-01-15T18:19:45.954Z,100787.59
2024-01-15T18:22:14.117Z,100804.03
2024-01-15T18:24:41.055Z,100808.69
2024-01-15T18:27:09.659Z,100806.13
2024-01-15T18:29:36.535Z,100811.47
2024-01-15T18:32:04.663Z,100802.78
2024-01-15T18:34:31.865Z,100786.03
2024-01-15T18:36:58.618Z,100804.50
2024-01-15T18:39:25.452Z,100817.56
2024-01-15T18:41:52.448Z,100815.75
2024-01-15T18:44:19.369Z,100781.63
2024-01-15T18:46:47.053Z,100812.13
2024-01-15T18:49:15.286Z,100797.00
2024-01-15T18:51:42.075Z,100822.16
2024-01-15T18:54:09.037Z,100820.28
2024-01-15T18:56:41.915Z,100824.09
2024-01-15T18:59:09.334Z,100819.56
2024-01-15T19:01:37.437Z,100766.75
2024-01-15T19:04:04.624Z,100831.72
2024-01-15T19:06:31.717Z,100834.97
2024-01-15T19:08:58.607Z,100842.72
2024-01-15T19:11:25.440Z,100839.03
2024-01-15T19:13:53.043Z,100838.94
2024-01-15T19:16:23.600Z,100826.22
2024-01-15T19:18:51.720Z,100825.03
2024-01-15T19:21:20.050Z,100835.34
2024-01-15T19:23:47.133Z,100837.94
2024-01-15T19:26:32.824Z,100845.81
2024-01-15T19:29:00.802Z,100824.41
2024-01-15T19:31:30.864Z,100840.78
2024-01-15T19:34:00.267Z,100862.13
2024-01-15T19:36:29.369Z,100864.53
2024-01-15T19:38:56.139Z,100867.13
2024-01-15T19:41:23.585Z,100862.50
2024-01-15T19:43:50.437Z,100859.75
2024-01-15T19:46:18.262Z,100864.94
2024-01-15T19:48:45.092Z,100865.22
2024-01-15T19:51:15.534Z,100866.44
2024-01-15T19:53:46.568Z,100814.31
2024-01-15T19:56:18.225Z,100845.41
2024-01-15T19:58:46.869Z,100861.28
2024-01-15T20:01:13.724Z,100857.03
2024-01-15T20:03:42.331Z,100843.75
2024-01-15T20:06:14.727Z,100858.63
2024-01-15T20:08:44.667Z,100851.38
2024-01-15T20:11:15.285Z,100840.00
2024-01-15T20:13:43.148Z,100838.06
2024-01-15T20:16:14.163Z,100855.38
2024-01-15T20:18:42.769Z,100829.88
2024-01-15T20:21:09.808Z,100841.03
2024-01-15T20:23:43.163Z,100846.75
2024-01-15T20:26:17.497Z,100840.81
2024-01-15T20:28:47.771Z,100826.78
2024-01-15T20:31:15.193Z,100811.72
2024-01-15T20:33:42.183Z,100836.97
2024-01-15T20:36:09.937Z,100822.69
2024-01-15T20:38:37.297Z,100819.13
2024-01-15T20:41:05.285Z,100839.31
2024-01-15T20:43:36.056Z,100838.94
2024-01-15T20:46:03.921Z,100844.59
2024-01-15T20:48:31.003Z,100833.84
2024-01-15T20:50:59.579Z,100845.34
2024-01-15T20:53:26.914Z,100858.31
2024-01-15T20:55:53.810Z,100848.28
2024-01-15T20:58:27.179Z,100843.91
2024-01-15T21:00:55.745Z,100842.19
2024-01-15T21:03:23.802Z,100860.75
2024-01-15T21:05:50.989Z,100852.91
2024-01-15T21:08:17.945Z,100861.84
2024-01-15T21:10:44.873Z,100854.72
2024-01-15T21:13:11.592Z,100853.34
2024-01-15T21:15:38.364Z,100856.69
2024-01-15T21:18:05.702Z,100864.97
2024-01-15T21:20:33.522Z,100869.97
2024-01-15T21:23:00.943Z,100874.25
2024-01-15T21:25:27.970Z,100865.47
2024-01-15T21:27:54.962Z,100855.91
2024-01-15T21:30:22.962Z,100864.34
2024-01-15T21:32:50.048Z,100858.13
2024-01-15T21:35:17.055Z,100853.25
2024-01-15T21:37:44.400Z,100848.75
2024-01-15T21:40:11.612Z,100855.94
2024-01-15T21:42:39.268Z,100845.38
2024-01-15T21:45:09.121Z,100848.00
2024-01-15T21:47:38.263Z,100841.53
2024-01-15T21:50:06.527Z,100854.97
2024-01-15T21:52:33.811Z,100814.34
2024-01-15T21:55:00.556Z,100832.47
2024-01-15T21:57:27.691Z,100834.56
2024-01-15T21:59:54.607Z,100831.78
2024-01-15T22:02:21.746Z,100818.03
2024-01-15T22:04:48.664Z,100829.56
2024-01-15T22:07:15.681Z,100841.84
2024-01-15T22:09:42.936Z,100836.66
2024-01-15T22:12:09.772Z,100833.44
2024-01-15T22:14:36.593Z,100820.94
2024-01-15T22:17:03.548Z,100821.56
2024-01-15T22:19:30.465Z,100827.69
2024-01-15T22:21:57.584Z,100827.50
2024-01-15T22:24:24.333Z,100828.50
2024-01-15T22:26:51.184Z,100790.63
2024-01-15T22:29:18.787Z,100802.34
2024-01-15T22:31:45.625Z,100813.81
2024-01-15T22:34:12.548Z,100815.75
2024-01-15T22:36:39.804Z,100811.16
2024-01-15T22:39:06.680Z,100812.91
2024-01-15T22:41:33.568Z,100812.84
2024-01-15T22:44:00.362Z,100812.78
2024-01-15T22:46:27.264Z,100820.59
2024-01-15T22:48:54.216Z,100805.59
2024-01-15T22:51:21.250Z,100808.25
2024-01-15T22:53:48.081Z,100808.13
2024-01-15T22:56:15.010Z,100820.31
2024-01-15T22:58:41.840Z,100827.09
2024-01-15T23:01:08.736Z,100830.31
2024-01-15T23:03:35.580Z,100844.25
2024-01-15T23:06:02.474Z,100834.56
2024-01-15T23:08:30.509Z,100807.44
2024-01-15T23:10:57.296Z,100837.31
2024-01-15T23:13:24.045Z,100843.38
2024-01-15T23:15:50.719Z,100810.78
2024-01-15T23:18:17.616Z,100839.06
2024-01-15T23:20:44.669Z,100838.28
2024-01-15T23:23:11.764Z,100818.25
2024-01-15T23:25:39.441Z,100820.91
2024-01-15T23:28:08.212Z,100826.91
2024-01-15T23:30:35.034Z,100833.75
2024-01-15T23:33:02.166Z,100832.03
2024-01-15T23:35:29.048Z,100837.22
2024-01-15T23:37:55.962Z,100811.59
2024-01-15T23:40:22.693Z,100815.66
2024-01-15T23:42:49.502Z,100832.34
2024-01-15T23:45:16.186Z,100833.94
2024-01-15T23:47:43.013Z,100813.50
2024-01-15T23:50:10.027Z,100814.97
2024-01-15T23:52:36.829Z,100795.44
2024-01-15T23:55:03.847Z,100812.13
2024-01-15T23:57:30.662Z,100784.81
2024-01-15T23:59:57.522Z,100819.13
